sensor_id;sensor_type;location;lat;lon;timestamp;pressure;altitude;pressure_sealevel;temperature;humidity
66486;BME280;53303;47.476;8.084;2023-02-12T00:01:09;97024.56;;;18.90;30.32
66486;BME280;53303;47.476;8.084;2023-02-12T00:03:35;97038.84;;;18.97;30.26
66486;BME280;53303;47.476;8.084;2023-02-12T00:06:01;97042.06;;;18.96;30.18
66486;BME280;53303;47.476;8.084;2023-02-12T00:08:27;97035.78;;;18.95;30.18
66486;BME280;53303;47.476;8.084;2023-02-12T00:10:55;97029.16;;;18.93;30.40
66486;BME280;53303;47.476;8.084;2023-02-12T00:13:23;97027.16;;;18.93;30.30
66486;BME280;53303;47.476;8.084;2023-02-12T00:15:49;97017.63;;;18.94;30.14
66486;BME280;53303;47.476;8.084;2023-02-12T00:18:19;97004.75;;;18.91;30.53
66486;BME280;53303;47.476;8.084;2023-02-12T00:20:47;97013.34;;;18.93;30.36
66486;BME280;53303;47.476;8.084;2023-02-12T00:23:12;97019.63;;;18.94;30.32
66486;BME280;53303;47.476;8.084;2023-02-12T00:25:40;97018.09;;;18.93;30.12
66486;BME280;53303;47.476;8.084;2023-02-12T00:28:05;97009.47;;;18.91;30.12
66486;BME280;53303;47.476;8.084;2023-02-12T00:30:36;97003.94;;;18.91;30.19
66486;BME280;53303;47.476;8.084;2023-02-12T00:33:02;97009.47;;;18.91;30.39
66486;BME280;53303;47.476;8.084;2023-02-12T00:35:27;97006.88;;;18.87;30.21
66486;BME280;53303;47.476;8.084;2023-02-12T00:37:53;97002.72;;;18.92;30.30
66486;BME280;53303;47.476;8.084;2023-02-12T00:40:23;96998.88;;;18.89;30.27
66486;BME280;53303;47.476;8.084;2023-02-12T00:42:51;96999.22;;;18.91;30.44
66486;BME280;53303;47.476;8.084;2023-02-12T00:45:19;96997.97;;;18.92;30.24
66486;BME280;53303;47.476;8.084;2023-02-12T00:47:45;96990.91;;;18.91;30.26
66486;BME280;53303;47.476;8.084;2023-02-12T00:50:15;97004.41;;;18.89;30.08
66486;BME280;53303;47.476;8.084;2023-02-12T00:52:40;97001.34;;;18.87;30.21
66486;BME280;53303;47.476;8.084;2023-02-12T00:55:10;96996.72;;;18.84;30.13
66486;BME280;53303;47.476;8.084;2023-02-12T00:57:36;97002.25;;;18.84;30.10
66486;BME280;53303;47.476;8.084;2023-02-12T01:00:02;97000.88;;;18.89;30.16
66486;BME280;53303;47.476;8.084;2023-02-12T01:02:27;97012.69;;;18.89;30.38
66486;BME280;53303;47.476;8.084;2023-02-12T01:04:53;97015.94;;;18.88;30.34
66486;BME280;53303;47.476;8.084;2023-02-12T01:07:18;96996.41;;;18.82;30.22
66486;BME280;53303;47.476;8.084;2023-02-12T01:09:43;97005.00;;;18.84;30.28
66486;BME280;53303;47.476;8.084;2023-02-12T01:12:11;96999.81;;;18.86;30.25
66486;BME280;53303;47.476;8.084;2023-02-12T01:14:36;97011.19;;;18.88;30.13
66486;BME280;53303;47.476;8.084;2023-02-12T01:17:07;97015.16;;;18.87;29.95
66486;BME280;53303;47.476;8.084;2023-02-12T01:19:33;97009.78;;;18.83;30.08
66486;BME280;53303;47.476;8.084;2023-02-12T01:21:59;97008.88;;;18.87;30.29
66486;BME280;53303;47.476;8.084;2023-02-12T01:24:26;97011.63;;;18.87;30.01
66486;BME280;53303;47.476;8.084;2023-02-12T01:26:54;97003.34;;;18.87;30.25
66486;BME280;53303;47.476;8.084;2023-02-12T01:29:20;97016.41;;;18.86;30.04
66486;BME280;53303;47.476;8.084;2023-02-12T01:31:45;97010.53;;;18.84;30.25
66486;BME280;53303;47.476;8.084;2023-02-12T01:34:13;97015.00;;;18.81;29.99
66486;BME280;53303;47.476;8.084;2023-02-12T01:36:39;97017.16;;;18.87;30.13
66486;BME280;53303;47.476;8.084;2023-02-12T01:39:06;97000.84;;;18.79;30.09
66486;BME280;53303;47.476;8.084;2023-02-12T01:41:35;97003.81;;;18.85;29.95
66486;BME280;53303;47.476;8.084;2023-02-12T01:44:10;96999.31;;;18.78;30.03
66486;BME280;53303;47.476;8.084;2023-02-12T01:46:38;97005.81;;;18.85;30.24
66486;BME280;53303;47.476;8.084;2023-02-12T01:49:09;97004.72;;;18.82;30.08
66486;BME280;53303;47.476;8.084;2023-02-12T01:51:42;96990.09;;;18.72;29.97
66486;BME280;53303;47.476;8.084;2023-02-12T01:54:11;97008.56;;;18.85;30.03
66486;BME280;53303;47.476;8.084;2023-02-12T01:56:37;96986.88;;;18.74;30.03
66486;BME280;53303;47.476;8.084;2023-02-12T01:59:07;96997.97;;;18.83;30.14
66486;BME280;53303;47.476;8.084;2023-02-12T02:01:33;96975.97;;;18.70;30.02
66486;BME280;53303;47.476;8.084;2023-02-12T02:04:11;96979.03;;;18.72;29.97
66486;BME280;53303;47.476;8.084;2023-02-12T02:06:47;96990.13;;;18.81;29.92
66486;BME280;53303;47.476;8.084;2023-02-12T02:09:15;96955.84;;;18.60;30.04
66486;BME280;53303;47.476;8.084;2023-02-12T02:11:44;96968.13;;;18.69;30.23
66486;BME280;53303;47.476;8.084;2023-02-12T02:14:29;96972.75;;;18.72;30.25
66486;BME280;53303;47.476;8.084;2023-02-12T02:28:24;96983.16;;;18.77;29.94
66486;BME280;53303;47.476;8.084;2023-02-12T02:38:51;96981.50;;;18.70;30.09
66486;BME280;53303;47.476;8.084;2023-02-12T02:41:29;96960.16;;;18.61;29.92
66486;BME280;53303;47.476;8.084;2023-02-12T02:44:08;96967.06;;;18.75;30.02
66486;BME280;53303;47.476;8.084;2023-02-12T02:46:47;96971.34;;;18.76;29.99
66486;BME280;53303;47.476;8.084;2023-02-12T02:49:20;96973.19;;;18.79;30.00
66486;BME280;53303;47.476;8.084;2023-02-12T02:51:49;96971.66;;;18.78;30.16
66486;BME280;53303;47.476;8.084;2023-02-12T02:54:33;96964.31;;;18.75;29.96
66486;BME280;53303;47.476;8.084;2023-02-12T02:57:08;96964.16;;;18.79;29.99
66486;BME280;53303;47.476;8.084;2023-02-12T02:59:40;96964.91;;;18.79;30.15
66486;BME280;53303;47.476;8.084;2023-02-12T03:02:17;96972.91;;;18.77;30.00
66486;BME280;53303;47.476;8.084;2023-02-12T03:04:51;96966.28;;;18.75;29.92
66486;BME280;53303;47.476;8.084;2023-02-12T03:07:21;96955.06;;;18.69;30.04
66486;BME280;53303;47.476;8.084;2023-02-12T03:09:53;96961.69;;;18.72;30.13
66486;BME280;53303;47.476;8.084;2023-02-12T03:12:30;96955.06;;;18.69;29.94
66486;BME280;53303;47.476;8.084;2023-02-12T03:17:44;96946.94;;;18.65;30.15
66486;BME280;53303;47.476;8.084;2023-02-12T03:20:17;96957.53;;;18.76;30.13
66486;BME280;53303;47.476;8.084;2023-02-12T03:22:57;96946.00;;;18.69;30.07
66486;BME280;53303;47.476;8.084;2023-02-12T03:26:03;96961.34;;;18.70;30.13
66486;BME280;53303;47.476;8.084;2023-02-12T03:28:34;96939.88;;;18.64;30.13
66486;BME280;53303;47.476;8.084;2023-02-12T03:36:34;96944.16;;;18.65;30.08
66486;BME280;53303;47.476;8.084;2023-02-12T03:39:09;96959.53;;;18.76;29.72
66486;BME280;53303;47.476;8.084;2023-02-12T03:41:52;96951.84;;;18.61;29.92
66486;BME280;53303;47.476;8.084;2023-02-12T03:47:42;96970.28;;;18.74;29.96
66486;BME280;53303;47.476;8.084;2023-02-12T03:52:52;96971.06;;;18.74;29.79
66486;BME280;53303;47.476;8.084;2023-02-12T03:55:18;96950.94;;;18.64;29.93
66486;BME280;53303;47.476;8.084;2023-02-12T03:57:47;96949.69;;;18.65;29.95
66486;BME280;53303;47.476;8.084;2023-02-12T04:00:21;96962.28;;;18.76;29.86
66486;BME280;53303;47.476;8.084;2023-02-12T04:02:46;96962.28;;;18.76;30.04
66486;BME280;53303;47.476;8.084;2023-02-12T04:05:18;96950.31;;;18.70;29.69
66486;BME280;53303;47.476;8.084;2023-02-12T04:07:43;96927.28;;;18.54;30.08
66486;BME280;53303;47.476;8.084;2023-02-12T04:10:11;96952.44;;;18.75;30.28
66486;BME280;53303;47.476;8.084;2023-02-12T04:13:09;96957.38;;;18.71;30.03
66486;BME280;53303;47.476;8.084;2023-02-12T04:21:13;96956.63;;;18.70;29.93
66486;BME280;53303;47.476;8.084;2023-02-12T04:29:25;96964.13;;;18.70;29.99
66486;BME280;53303;47.476;8.084;2023-02-12T04:35:23;96961.53;;;18.57;29.99
66486;BME280;53303;47.476;8.084;2023-02-12T04:37:53;96987.03;;;18.70;30.10
66486;BME280;53303;47.476;8.084;2023-02-12T04:40:20;96979.50;;;18.71;30.16
66486;BME280;53303;47.476;8.084;2023-02-12T04:42:50;96966.44;;;18.62;30.05
66486;BME280;53303;47.476;8.084;2023-02-12T04:45:36;96983.19;;;18.68;30.13
66486;BME280;53303;47.476;8.084;2023-02-12T04:48:03;96957.06;;;18.59;29.87
66486;BME280;53303;47.476;8.084;2023-02-12T04:50:40;96978.44;;;18.68;30.00
66486;BME280;53303;47.476;8.084;2023-02-12T04:53:09;96968.44;;;18.61;30.00
66486;BME280;53303;47.476;8.084;2023-02-12T04:55:36;96969.66;;;18.60;29.96
66486;BME280;53303;47.476;8.084;2023-02-12T04:58:04;96983.03;;;18.71;29.90
66486;BME280;53303;47.476;8.084;2023-02-12T05:00:30;96975.50;;;18.62;30.20
66486;BME280;53303;47.476;8.084;2023-02-12T05:02:58;96940.63;;;18.37;30.07
66486;BME280;53303;47.476;8.084;2023-02-12T05:05:24;96967.84;;;18.67;30.02
66486;BME280;53303;47.476;8.084;2023-02-12T05:07:49;96971.50;;;18.63;30.08
66486;BME280;53303;47.476;8.084;2023-02-12T05:10:18;96943.09;;;18.44;30.06
66486;BME280;53303;47.476;8.084;2023-02-12T05:12:46;96976.28;;;18.72;30.02
66486;BME280;53303;47.476;8.084;2023-02-12T05:15:13;96963.66;;;18.62;30.23
66486;BME280;53303;47.476;8.084;2023-02-12T05:17:41;96971.66;;;18.69;30.03
66486;BME280;53303;47.476;8.084;2023-02-12T05:20:07;96976.13;;;18.67;30.42
66486;BME280;53303;47.476;8.084;2023-02-12T05:22:35;96964.13;;;18.60;30.01
66486;BME280;53303;47.476;8.084;2023-02-12T05:25:00;96959.84;;;18.59;30.12
66486;BME280;53303;47.476;8.084;2023-02-12T05:27:28;96961.53;;;18.57;29.93
66486;BME280;53303;47.476;8.084;2023-02-12T05:29:56;96949.84;;;18.53;30.17
66486;BME280;53303;47.476;8.084;2023-02-12T05:32:23;96967.53;;;18.64;30.06
66486;BME280;53303;47.476;8.084;2023-02-12T05:34:49;96955.22;;;18.56;30.06
66486;BME280;53303;47.476;8.084;2023-02-12T05:37:17;96959.84;;;18.59;29.76
66486;BME280;53303;47.476;8.084;2023-02-12T05:39:48;96944.47;;;18.58;30.12
66486;BME280;53303;47.476;8.084;2023-02-12T05:42:13;96967.97;;;18.72;30.22
66486;BME280;53303;47.476;8.084;2023-02-12T05:44:41;96951.84;;;18.61;30.15
66486;BME280;53303;47.476;8.084;2023-02-12T05:47:07;96973.81;;;18.74;30.04
66486;BME280;53303;47.476;8.084;2023-02-12T05:49:32;96958.59;;;18.70;30.09
66486;BME280;53303;47.476;8.084;2023-02-12T05:52:01;96957.06;;;18.69;30.07
66486;BME280;53303;47.476;8.084;2023-02-12T05:54:26;96953.06;;;18.70;30.04
66486;BME280;53303;47.476;8.084;2023-02-12T05:56:54;96966.72;;;18.73;30.35
66486;BME280;53303;47.476;8.084;2023-02-12T05:59:23;96958.78;;;18.75;30.11
66486;BME280;53303;47.476;8.084;2023-02-12T06:01:51;96958.75;;;18.66;30.06
66486;BME280;53303;47.476;8.084;2023-02-12T06:04:20;96958.44;;;18.73;30.07
66486;BME280;53303;47.476;8.084;2023-02-12T06:06:47;96964.75;;;18.74;30.01
66486;BME280;53303;47.476;8.084;2023-02-12T06:09:15;96939.25;;;18.60;29.99
66486;BME280;53303;47.476;8.084;2023-02-12T06:11:44;96948.78;;;18.69;30.34
66486;BME280;53303;47.476;8.084;2023-02-12T06:14:15;96968.59;;;18.76;30.17
66486;BME280;53303;47.476;8.084;2023-02-12T06:16:45;96955.97;;;18.66;29.98
66486;BME280;53303;47.476;8.084;2023-02-12T06:19:11;96969.03;;;18.75;30.21
66486;BME280;53303;47.476;8.084;2023-02-12T06:21:42;96948.47;;;18.67;30.07
66486;BME280;53303;47.476;8.084;2023-02-12T06:24:10;96961.06;;;18.77;30.24
66486;BME280;53303;47.476;8.084;2023-02-12T06:26:36;96961.69;;;18.72;30.22
66486;BME280;53303;47.476;8.084;2023-02-12T06:29:02;96968.44;;;18.80;30.12
66486;BME280;53303;47.476;8.084;2023-02-12T06:31:32;96966.91;;;18.79;30.12
66486;BME280;53303;47.476;8.084;2023-02-12T06:34:03;96948.63;;;18.72;30.29
66486;BME280;53303;47.476;8.084;2023-02-12T06:36:35;96963.66;;;18.80;30.35
66486;BME280;53303;47.476;8.084;2023-02-12T06:39:06;96929.91;;;18.58;30.12
66486;BME280;53303;47.476;8.084;2023-02-12T06:41:34;96961.53;;;18.75;29.98
66486;BME280;53303;47.476;8.084;2023-02-12T06:43:59;96971.53;;;18.82;30.28
66486;BME280;53303;47.476;8.084;2023-02-12T06:46:25;96959.06;;;18.77;30.39
66486;BME280;53303;47.476;8.084;2023-02-12T06:49:00;96979.06;;;18.81;30.15
66486;BME280;53303;47.476;8.084;2023-02-12T06:51:30;96962.91;;;18.80;30.41
66486;BME280;53303;47.476;8.084;2023-02-12T06:53:58;96936.63;;;18.66;30.27
66486;BME280;53303;47.476;8.084;2023-02-12T06:56:25;96971.06;;;18.83;30.31
66486;BME280;53303;47.476;8.084;2023-02-12T06:58:57;96965.25;;;18.81;30.09
66486;BME280;53303;47.476;8.084;2023-02-12T07:01:25;96954.00;;;18.76;30.32
66486;BME280;53303;47.476;8.084;2023-02-12T07:03:54;96958.94;;;18.72;30.20
66486;BME280;53303;47.476;8.084;2023-02-12T07:06:22;96970.63;;;18.85;30.28
66486;BME280;53303;47.476;8.084;2023-02-12T07:08:50;96956.00;;;18.75;30.13
66486;BME280;53303;47.476;8.084;2023-02-12T07:11:19;96967.84;;;18.85;30.18
66486;BME280;53303;47.476;8.084;2023-02-12T07:13:49;96976.16;;;18.85;30.16
66486;BME280;53303;47.476;8.084;2023-02-12T07:16:15;96978.44;;;18.87;30.07
66486;BME280;53303;47.476;8.084;2023-02-12T07:18:41;96969.06;;;18.84;30.07
66486;BME280;53303;47.476;8.084;2023-02-12T07:21:08;96974.47;;;18.88;30.29
66486;BME280;53303;47.476;8.084;2023-02-12T07:23:34;96968.75;;;18.82;30.28
66486;BME280;53303;47.476;8.084;2023-02-12T07:26:07;96966.31;;;18.84;30.31
66486;BME280;53303;47.476;8.084;2023-02-12T07:28:36;96976.75;;;18.89;30.32
66486;BME280;53303;47.476;8.084;2023-02-12T07:31:09;96979.50;;;18.89;30.25
66486;BME280;53303;47.476;8.084;2023-02-12T07:33:38;96968.75;;;18.82;30.44
66486;BME280;53303;47.476;8.084;2023-02-12T07:36:08;96977.06;;;18.91;30.31
66486;BME280;53303;47.476;8.084;2023-02-12T07:38:34;96962.91;;;18.80;30.29
66486;BME280;53303;47.476;8.084;2023-02-12T07:41:13;96986.13;;;18.92;30.22
66486;BME280;53303;47.476;8.084;2023-02-12T07:43:44;96979.84;;;18.91;30.37
66486;BME280;53303;47.476;8.084;2023-02-12T07:46:12;96966.00;;;18.82;30.24
66486;BME280;53303;47.476;8.084;2023-02-12T07:48:38;96980.59;;;18.92;30.33
66486;BME280;53303;47.476;8.084;2023-02-12T07:51:13;96985.03;;;18.89;30.39
66486;BME280;53303;47.476;8.084;2023-02-12T07:53:43;96979.50;;;18.89;30.32
66486;BME280;53303;47.476;8.084;2023-02-12T07:56:17;96993.19;;;18.93;30.46
66486;BME280;53303;47.476;8.084;2023-02-12T07:58:44;96989.34;;;18.90;30.26
66486;BME280;53303;47.476;8.084;2023-02-12T08:01:16;96993.97;;;18.93;30.39
66486;BME280;53303;47.476;8.084;2023-02-12T08:03:43;96994.72;;;18.94;30.37
66486;BME280;53303;47.476;8.084;2023-02-12T08:06:16;96980.91;;;18.85;30.42
66486;BME280;53303;47.476;8.084;2023-02-12T08:08:42;96989.81;;;18.89;30.41
66486;BME280;53303;47.476;8.084;2023-02-12T08:11:11;97003.34;;;18.96;30.26
66486;BME280;53303;47.476;8.084;2023-02-12T08:13:37;96987.06;;;18.89;30.32
66486;BME280;53303;47.476;8.084;2023-02-12T08:16:07;96990.75;;;18.95;30.44
66486;BME280;53303;47.476;8.084;2023-02-12T08:18:35;96980.91;;;18.94;30.26
66486;BME280;53303;47.476;8.084;2023-02-12T08:21:08;96978.59;;;18.83;30.25
66486;BME280;53303;47.476;8.084;2023-02-12T08:23:38;96999.34;;;18.97;30.38
66486;BME280;53303;47.476;8.084;2023-02-12T08:26:15;96987.50;;;18.96;30.51
66486;BME280;53303;47.476;8.084;2023-02-12T08:28:51;96992.44;;;18.92;30.58
66486;BME280;53303;47.476;8.084;2023-02-12T08:31:25;96992.13;;;18.99;30.81
66486;BME280;53303;47.476;8.084;2023-02-12T08:33:56;96965.53;;;18.83;31.07
66486;BME280;53303;47.476;8.084;2023-02-12T08:36:28;96988.44;;;19.02;31.23
66486;BME280;53303;47.476;8.084;2023-02-12T08:38:58;96985.38;;;19.00;31.42
66486;BME280;53303;47.476;8.084;2023-02-12T08:41:28;96983.81;;;18.99;31.44
66486;BME280;53303;47.476;8.084;2023-02-12T08:43:59;96986.59;;;18.99;31.52
66486;BME280;53303;47.476;8.084;2023-02-12T08:46:35;96990.59;;;18.98;31.53
66486;BME280;53303;47.476;8.084;2023-02-12T08:49:06;96989.34;;;18.99;31.69
66486;BME280;53303;47.476;8.084;2023-02-12T08:51:37;96980.44;;;18.95;31.71
66486;BME280;53303;47.476;8.084;2023-02-12T08:54:06;96980.28;;;18.99;31.58
66486;BME280;53303;47.476;8.084;2023-02-12T08:56:33;96968.63;;;18.95;31.53
66486;BME280;53303;47.476;8.084;2023-02-12T08:59:02;96976.28;;;19.00;31.73
66486;BME280;53303;47.476;8.084;2023-02-12T09:01:33;96977.38;;;18.93;31.92
66486;BME280;53303;47.476;8.084;2023-02-12T09:03:59;96944.00;;;18.78;31.43
66486;BME280;53303;47.476;8.084;2023-02-12T09:06:25;96975.66;;;18.96;31.57
66486;BME280;53303;47.476;8.084;2023-02-12T09:08:56;96980.44;;;19.05;31.57
66486;BME280;53303;47.476;8.084;2023-02-12T09:11:25;96984.91;;;19.02;31.74
66486;BME280;53303;47.476;8.084;2023-02-12T09:13:56;96995.81;;;19.06;32.04
66486;BME280;53303;47.476;8.084;2023-02-12T09:16:23;96969.69;;;18.97;32.12
66486;BME280;53303;47.476;8.084;2023-02-12T09:18:48;96943.69;;;18.76;32.44
66486;BME280;53303;47.476;8.084;2023-02-12T09:21:19;96926.38;;;18.67;32.79
66486;BME280;53303;47.476;8.084;2023-02-12T09:23:49;96990.28;;;19.06;32.88
66486;BME280;53303;47.476;8.084;2023-02-12T09:26:18;96981.03;;;18.99;33.15
66486;BME280;53303;47.476;8.084;2023-02-12T09:28:49;96985.50;;;19.06;33.67
66486;BME280;53303;47.476;8.084;2023-02-12T09:31:17;96980.59;;;19.01;33.77
66486;BME280;53303;47.476;8.084;2023-02-12T09:33:45;96955.41;;;18.90;33.99
66486;BME280;53303;47.476;8.084;2023-02-12T09:36:13;96981.81;;;19.00;34.02
66486;BME280;53303;47.476;8.084;2023-02-12T09:38:39;96957.69;;;18.82;34.42
66486;BME280;53303;47.476;8.084;2023-02-12T09:44:06;96963.25;;;18.91;34.67
66486;BME280;53303;47.476;8.084;2023-02-12T09:46:51;96981.66;;;19.03;34.81
66486;BME280;53303;47.476;8.084;2023-02-12T09:51:50;96948.78;;;18.78;35.01
66486;BME280;53303;47.476;8.084;2023-02-12T09:54:20;96993.66;;;19.00;35.12
66486;BME280;53303;47.476;8.084;2023-02-12T09:56:59;96984.72;;;18.96;35.10
66486;BME280;53303;47.476;8.084;2023-02-12T09:59:39;96943.41;;;18.74;35.16
66486;BME280;53303;47.476;8.084;2023-02-12T10:02:14;96990.91;;;19.00;35.12
66486;BME280;53303;47.476;8.084;2023-02-12T10:04:41;96998.59;;;19.06;35.16
66486;BME280;53303;47.476;8.084;2023-02-12T10:07:24;96987.50;;;19.06;35.09
66486;BME280;53303;47.476;8.084;2023-02-12T10:13:03;96985.97;;;19.05;35.04
66486;BME280;53303;47.476;8.084;2023-02-12T10:25:43;96983.22;;;18.95;34.89
66486;BME280;53303;47.476;8.084;2023-02-12T10:28:14;96976.59;;;18.93;34.50
66486;BME280;53303;47.476;8.084;2023-02-12T10:33:43;96959.56;;;18.85;34.54
66486;BME280;53303;47.476;8.084;2023-02-12T10:44:11;96974.59;;;19.02;34.67
66486;BME280;53303;47.476;8.084;2023-02-12T10:46:37;96979.03;;;19.00;34.41
66486;BME280;53303;47.476;8.084;2023-02-12T10:49:05;96980.88;;;19.03;34.45
66486;BME280;53303;47.476;8.084;2023-02-12T10:51:53;96967.06;;;18.94;34.39
66486;BME280;53303;47.476;8.084;2023-02-12T10:54:39;96957.72;;;18.91;34.31
66486;BME280;53303;47.476;8.084;2023-02-12T10:57:18;96960.47;;;19.00;34.20
66486;BME280;53303;47.476;8.084;2023-02-12T10:59:46;96946.31;;;18.89;34.31
66486;BME280;53303;47.476;8.084;2023-02-12T11:02:25;96953.69;;;19.01;34.27
66486;BME280;53303;47.476;8.084;2023-02-12T11:04:56;96924.81;;;18.84;34.27
66486;BME280;53303;47.476;8.084;2023-02-12T11:07:22;96941.88;;;18.92;34.31
66486;BME280;53303;47.476;8.084;2023-02-12T11:09:52;96940.81;;;18.98;34.14
66486;BME280;53303;47.476;8.084;2023-02-12T11:12:39;96941.09;;;19.00;33.98
66486;BME280;53303;47.476;8.084;2023-02-12T11:15:22;96941.84;;;19.01;34.22
66486;BME280;53303;47.476;8.084;2023-02-12T11:18:24;96940.47;;;18.96;34.00
66486;BME280;53303;47.476;8.084;2023-02-12T11:21:00;96925.72;;;18.99;34.10
66486;BME280;53303;47.476;8.084;2023-02-12T11:23:38;96924.22;;;18.98;34.09
66486;BME280;53303;47.476;8.084;2023-02-12T11:26:08;96909.91;;;18.91;34.04
66486;BME280;53303;47.476;8.084;2023-02-12T11:29:00;96916.22;;;19.00;34.00
66486;BME280;53303;47.476;8.084;2023-02-12T11:34:16;96904.69;;;18.93;33.93
66486;BME280;53303;47.476;8.084;2023-02-12T11:36:46;96905.75;;;18.95;33.90
66486;BME280;53303;47.476;8.084;2023-02-12T11:39:27;96921.75;;;19.00;33.92
66486;BME280;53303;47.476;8.084;2023-02-12T11:41:59;96905.91;;;19.01;33.88
66486;BME280;53303;47.476;8.084;2023-02-12T11:46:58;96899.31;;;18.98;33.85
66486;BME280;53303;47.476;8.084;2023-02-12T11:49:32;96905.13;;;19.00;33.89
66486;BME280;53303;47.476;8.084;2023-02-12T11:52:00;96889.31;;;18.92;33.88
66486;BME280;53303;47.476;8.084;2023-02-12T11:54:37;96898.66;;;19.03;33.76
66486;BME280;53303;47.476;8.084;2023-02-12T11:57:04;96881.00;;;19.01;33.74
66486;BME280;53303;47.476;8.084;2023-02-12T11:59:41;96857.22;;;18.85;33.69
66486;BME280;53303;47.476;8.084;2023-02-12T12:02:31;96883.78;;;19.01;33.87
66486;BME280;53303;47.476;8.084;2023-02-12T12:05:10;96882.56;;;19.02;33.67
66486;BME280;53303;47.476;8.084;2023-02-12T12:07:38;96880.09;;;19.04;33.92
66486;BME280;53303;47.476;8.084;2023-02-12T12:12:41;96859.38;;;18.90;33.70
66486;BME280;53303;47.476;8.084;2023-02-12T12:21:48;96867.94;;;19.01;33.77
66486;BME280;53303;47.476;8.084;2023-02-12T12:24:29;96850.75;;;18.97;33.97
66486;BME280;53303;47.476;8.084;2023-02-12T12:26:59;96854.22;;;19.07;33.66
66486;BME280;53303;47.476;8.084;2023-02-12T12:29:58;96851.63;;;19.03;33.74
66486;BME280;53303;47.476;8.084;2023-02-12T12:32:35;96827.06;;;18.96;33.64
66486;BME280;53303;47.476;8.084;2023-02-12T12:35:03;96836.88;;;19.07;33.47
66486;BME280;53303;47.476;8.084;2023-02-12T12:37:37;96846.09;;;19.13;33.45
66486;BME280;53303;47.476;8.084;2023-02-12T12:43:11;96851.63;;;19.13;33.35
66486;BME280;53303;47.476;8.084;2023-02-12T12:48:43;96841.47;;;19.10;33.40
66486;BME280;53303;47.476;8.084;2023-02-12T12:51:16;96842.69;;;19.18;33.39
66486;BME280;53303;47.476;8.084;2023-02-12T13:13:28;96823.88;;;19.31;33.21
66486;BME280;53303;47.476;8.084;2023-02-12T13:26:53;96798.84;;;19.26;33.22
66486;BME280;53303;47.476;8.084;2023-02-12T13:29:28;96815.97;;;19.39;33.01
66486;BME280;53303;47.476;8.084;2023-02-12T13:32:02;96817.63;;;19.46;32.89
66486;BME280;53303;47.476;8.084;2023-02-12T13:34:30;96817.63;;;19.46;33.11
66486;BME280;53303;47.476;8.084;2023-02-12T13:37:00;96818.41;;;19.46;32.61
66486;BME280;53303;47.476;8.084;2023-02-12T13:39:41;96819.00;;;19.50;32.91
66486;BME280;53303;47.476;8.084;2023-02-12T13:47:25;96823.25;;;19.60;32.95
66486;BME280;53303;47.476;8.084;2023-02-12T13:49:59;96827.84;;;19.64;32.87
66486;BME280;53303;47.476;8.084;2023-02-12T13:55:22;96826.63;;;19.65;32.74
66486;BME280;53303;47.476;8.084;2023-02-12T14:01:08;96824.91;;;19.67;32.59
66486;BME280;53303;47.476;8.084;2023-02-12T14:03:35;96830.88;;;19.75;32.75
66486;BME280;53303;47.476;8.084;2023-02-12T14:06:16;96816.41;;;19.71;32.57
66486;BME280;53303;47.476;8.084;2023-02-12T14:08:46;96822.38;;;19.78;32.50
66486;BME280;53303;47.476;8.084;2023-02-12T14:11:24;96829.28;;;19.83;32.57
66486;BME280;53303;47.476;8.084;2023-02-12T14:13:54;96810.88;;;19.71;32.69
66486;BME280;53303;47.476;8.084;2023-02-12T14:16:36;96825.00;;;19.82;32.92
66486;BME280;53303;47.476;8.084;2023-02-12T14:19:38;96829.09;;;19.87;32.54
66486;BME280;53303;47.476;8.084;2023-02-12T14:27:04;96813.25;;;19.87;32.66
66486;BME280;53303;47.476;8.084;2023-02-12T14:29:30;96824.31;;;19.87;32.32
66486;BME280;53303;47.476;8.084;2023-02-12T14:31:58;96797.63;;;19.75;32.49
66486;BME280;53303;47.476;8.084;2023-02-12T14:37:15;96827.34;;;19.99;32.43
66486;BME280;53303;47.476;8.084;2023-02-12T14:39:42;96791.59;;;19.86;32.18
66486;BME280;53303;47.476;8.084;2023-02-12T14:47:11;96830.22;;;20.04;32.40
66486;BME280;53303;47.476;8.084;2023-02-12T14:52:31;96806.47;;;19.88;32.32
66486;BME280;53303;47.476;8.084;2023-02-12T14:55:16;96821.91;;;20.04;32.33
66486;BME280;53303;47.476;8.084;2023-02-12T14:57:46;96816.91;;;19.93;32.50
66486;BME280;53303;47.476;8.084;2023-02-12T15:02:47;96812.41;;;19.96;32.16
66486;BME280;53303;47.476;8.084;2023-02-12T15:05:22;96832.81;;;20.08;32.57
66486;BME280;53303;47.476;8.084;2023-02-12T15:10:28;96834.22;;;20.03;32.66
66486;BME280;53303;47.476;8.084;2023-02-12T15:16:06;96836.06;;;20.06;32.75
66486;BME280;53303;47.476;8.084;2023-02-12T15:24:06;96827.22;;;19.93;32.74
66486;BME280;53303;47.476;8.084;2023-02-12T15:26:38;96827.44;;;20.04;32.72
66486;BME280;53303;47.476;8.084;2023-02-12T15:29:05;96841.13;;;20.08;32.87
66486;BME280;53303;47.476;8.084;2023-02-12T15:31:32;96828.56;;;19.97;32.88
66486;BME280;53303;47.476;8.084;2023-02-12T15:34:02;96844.06;;;20.04;33.03
66486;BME280;53303;47.476;8.084;2023-02-12T15:36:30;96847.03;;;20.01;33.03
66486;BME280;53303;47.476;8.084;2023-02-12T15:39:00;96849.97;;;19.97;33.00
66486;BME280;53303;47.476;8.084;2023-02-12T15:44:01;96845.09;;;19.92;33.19
66486;BME280;53303;47.476;8.084;2023-02-12T15:46:32;96840.66;;;19.85;33.33
66486;BME280;53303;47.476;8.084;2023-02-12T15:48:57;96851.28;;;19.87;33.22
66486;BME280;53303;47.476;8.084;2023-02-12T15:51:39;96848.09;;;19.79;33.36
66486;BME280;53303;47.476;8.084;2023-02-12T15:54:14;96827.19;;;19.69;33.17
66486;BME280;53303;47.476;8.084;2023-02-12T15:56:43;96838.75;;;19.67;33.41
66486;BME280;53303;47.476;8.084;2023-02-12T15:59:18;96840.75;;;19.67;33.24
66486;BME280;53303;47.476;8.084;2023-02-12T16:02:18;96858.41;;;19.69;33.44
66486;BME280;53303;47.476;8.084;2023-02-12T16:04:44;96857.47;;;19.72;33.33
66486;BME280;53303;47.476;8.084;2023-02-12T16:07:11;96851.94;;;19.72;33.38
66486;BME280;53303;47.476;8.084;2023-02-12T16:09:41;96844.47;;;19.64;33.37
66486;BME280;53303;47.476;8.084;2023-02-12T16:12:12;96851.25;;;19.63;33.15